Time;durP1;ratioP1;P1;durP2;ratioP2;P2;SDS_P1;SDS_P2;PMS_P1;PMS_P2;Temp;Humidity;BMP_temperature;BMP_pressure;BME280_temperature;BME280_humidity;BME280_pressure;Samples;Min_cycle;Max_cycle;Signal;HPM_P1;HPM_P2
2022/02/13 00:01:37;;;;;;;22.60;13.73;;;5.40;99.90;;;5.63;68.78;101638.41;5115080;28;20046;-62
2022/02/13 00:04:05;;;;;;;;;;;5.50;99.90;;;5.61;68.41;101637.47;5116340;28;20044;-62
2022/02/13 00:06:35;;;;;;;20.53;13.40;;;5.50;99.90;;;5.59;68.95;101614.66;5114809;28;19969;-62
2022/02/13 00:09:04;;;;;;;18.47;13.50;;;5.40;99.90;;;5.23;68.98;101543.69;5115691;28;20047;-61
2022/02/13 00:11:32;;;;;;;20.30;13.43;;;5.50;99.90;;;5.63;68.77;101599.03;5115648;28;20119;-62
2022/02/13 00:14:01;;;;;;;22.00;13.50;;;5.40;99.90;;;5.59;69.36;101602.41;5115583;28;20043;-62
2022/02/13 00:16:29;;;;;;;21.27;13.25;;;5.40;99.90;;;5.66;69.37;101604.34;5115774;28;20044;-60
2022/02/13 00:18:59;;;;;;;18.70;14.20;;;5.50;99.90;;;5.63;69.09;101588.53;5115800;28;20074;-61
2022/02/13 00:21:48;;;;;;;22.50;13.80;;;5.40;99.90;;;5.55;69.30;101589.16;5115511;27;20405;-62
2022/02/13 00:24:16;;;;;;;23.97;13.50;;;5.40;99.90;;;5.37;69.53;101573.81;5115343;28;20277;-62
2022/02/13 00:26:45;;;;;;;22.73;15.00;;;5.30;99.90;;;5.45;69.66;101578.44;5115280;28;20044;-61
2022/02/13 00:29:14;;;;;;;23.50;15.13;;;5.30;99.90;;;5.44;69.88;101565.25;5115615;28;20044;-62
2022/02/13 00:31:43;;;;;;;21.70;14.47;;;5.30;99.90;;;5.43;69.90;101550.38;5114147;28;20082;-62
2022/02/13 00:34:13;;;;;;;21.97;14.23;;;5.40;99.90;;;5.46;69.92;101545.19;5114140;28;20108;-62
2022/02/13 00:36:41;;;;;;;21.10;13.95;;;5.40;99.90;;;5.46;70.06;101543.47;5115156;28;20043;-62
2022/02/13 00:39:10;;;;;;;18.63;14.00;;;5.30;99.90;;;5.24;70.53;101509.66;5115079;28;20431;-62
2022/02/13 00:41:38;;;;;;;22.27;13.90;;;5.30;99.90;;;5.34;70.95;101510.78;5115225;28;20047;-61
2022/02/13 00:44:08;;;;;;;26.97;15.00;;;5.30;99.90;;;4.80;70.82;101426.28;5115218;28;20039;-62
2022/02/13 00:46:37;;;;;;;22.93;14.80;;;5.30;99.90;;;5.38;71.22;101525.78;5114941;28;20039;-63
2022/02/13 00:49:06;;;;;;;22.07;14.43;;;5.30;99.90;;;5.29;71.11;101529.00;5114904;28;20036;-61
2022/02/13 00:51:35;;;;;;;20.30;13.50;;;5.30;99.90;;;5.48;71.12;101543.50;5114843;28;20382;-61
2022/02/13 00:54:04;;;;;;;23.08;13.90;;;5.30;99.90;;;5.34;71.22;101510.78;5114830;28;20048;-61
2022/02/13 00:56:33;;;;;;;21.20;13.70;;;5.30;99.90;;;5.50;71.36;101533.94;5114860;28;20085;-61
2022/02/13 00:59:01;;;;;;;18.97;14.10;;;5.40;99.90;;;5.52;71.32;101519.13;5114765;28;20038;-61
2022/02/13 01:01:29;;;;;;;18.90;13.53;;;5.40;99.90;;;5.57;71.01;101516.63;5114873;28;20075;-61
2022/02/13 01:03:58;;;;;;;20.60;13.50;;;5.40;99.90;;;5.35;71.25;101507.31;5130754;27;20063;-61
2022/02/13 01:06:27;;;;;;;24.20;14.07;;;5.40;99.90;;;5.35;71.07;101496.81;5130718;27;20076;-61
2022/02/13 01:08:57;;;;;;;20.43;14.20;;;5.30;99.90;;;5.39;71.38;101496.06;5114452;28;20442;-61
2022/02/13 01:11:26;;;;;;;24.70;14.40;;;5.30;99.90;;;5.24;71.19;101464.19;5113515;28;20138;-62
2022/02/13 01:13:55;;;;;;;25.83;14.85;;;5.30;99.90;;;5.28;71.25;101489.66;5113459;28;20066;-62
2022/02/13 01:16:26;;;;;;;19.43;13.10;;;5.30;99.90;;;5.35;71.25;101483.69;5113395;28;20510;-61
2022/02/13 01:18:55;;;;;;;26.27;13.73;;;5.30;99.90;;;5.40;71.24;101484.72;5114390;28;20047;-62
2022/02/13 01:21:25;;;;;;;22.60;14.02;;;5.30;99.90;;;5.36;71.02;101491.59;5114559;28;20046;-62
2022/02/13 01:23:54;;;;;;;18.90;14.10;;;5.30;99.90;;;5.35;71.25;101487.22;5114202;28;20092;-61
2022/02/13 01:26:24;;;;;;;19.73;13.30;;;5.30;99.90;;;5.38;71.03;101489.91;5130395;27;20048;-61
2022/02/13 01:28:53;;;;;;;21.38;14.02;;;5.30;99.90;;;5.45;70.88;101494.50;5114307;28;20043;-61
2022/02/13 01:31:21;;;;;;;17.87;13.20;;;5.30;99.90;;;5.21;70.77;101454.50;5114087;28;20051;-71
2022/02/13 01:33:50;;;;;;;19.93;14.37;;;5.30;99.90;;;5.40;71.02;101484.72;5114275;28;20073;-62
2022/02/13 01:36:18;;;;;;;20.97;14.47;;;5.30;99.90;;;5.43;70.73;101492.66;5114305;28;20442;-67
2022/02/13 01:38:47;;;;;;;18.87;14.03;;;5.30;99.90;;;5.40;70.89;101503.09;5112984;28;20047;-62
2022/02/13 01:41:17;;;;;;;18.30;13.23;;;5.30;99.90;;;5.34;70.81;101485.44;5114000;28;20044;-65
2022/02/13 01:43:46;;;;;;;21.83;13.45;;;5.20;99.90;;;5.34;71.13;101474.06;5113983;28;20044;-61
2022/02/13 01:46:15;;;;;;;17.67;12.85;;;5.20;99.90;;;5.13;70.91;101444.66;5113884;28;20048;-61
2022/02/13 01:48:44;;;;;;;19.00;13.63;;;5.20;99.90;;;5.30;71.39;101472.22;5113868;28;20043;-61
2022/02/13 01:51:12;;;;;;;20.42;13.73;;;5.20;99.90;;;5.27;70.86;101457.28;5112781;28;20070;-62
2022/02/13 01:53:46;;;;;;;20.92;13.90;;;5.20;99.90;;;5.24;70.97;101459.84;5113834;28;20388;-61
2022/02/13 01:56:16;;;;;;;18.25;12.90;;;5.20;99.90;;;5.32;70.71;101467.91;5113869;28;20052;-61
2022/02/13 01:58:48;;;;;;;19.00;13.77;;;5.10;99.90;;;5.31;71.12;101463.47;5114307;28;20044;-61
2022/02/13 02:01:16;;;;;;;23.73;13.85;;;5.20;99.90;;;5.14;71.05;101425.44;5129807;27;20100;-61
2022/02/13 02:03:46;;;;;;;24.03;13.40;;;5.20;99.90;;;5.18;71.09;101453.53;5113470;28;20035;-61
2022/02/13 02:06:14;;;;;;;23.03;14.17;;;5.10;99.90;;;5.17;71.67;101441.25;5113599;28;20039;-61
2022/02/13 02:08:43;;;;;;;25.70;13.73;;;5.10;99.90;;;5.09;71.20;101430.56;5113849;27;20089;-62
2022/02/13 02:11:11;;;;;;;19.67;13.60;;;5.10;99.90;;;5.16;71.68;101449.97;5113572;28;20093;-61
2022/02/13 02:13:40;;;;;;;21.87;14.53;;;5.10;99.90;;;5.11;71.56;101449.84;5113829;28;20061;-62
2022/02/13 02:16:09;;;;;;;19.63;13.37;;;5.00;99.90;;;4.59;71.78;101357.56;5113493;28;20050;-63
2022/02/13 02:18:38;;;;;;;19.15;13.82;;;5.00;99.90;;;4.94;71.98;101429.25;5113747;28;20100;-61
2022/02/13 02:21:08;;;;;;;19.47;13.67;;;4.90;99.90;;;5.03;71.83;101426.91;5113433;28;20550;-61
2022/02/13 02:23:39;;;;;;;21.90;14.48;;;4.90;99.90;;;4.84;72.37;101414.16;5113813;28;20088;-61
2022/02/13 02:26:09;;;;;;;20.33;13.40;;;4.80;99.90;;;4.93;72.17;101419.66;5117027;28;20047;-61
2022/02/13 02:28:37;;;;;;;22.73;14.20;;;4.80;99.90;;;4.86;72.31;101409.84;5117669;28;20046;-61
2022/02/13 02:31:06;;;;;;;25.30;14.50;;;4.80;99.90;;;4.44;72.54;101342.34;5133800;27;20400;-61
2022/02/13 02:33:34;;;;;;;19.93;14.07;;;4.80;99.90;;;4.88;72.44;101395.06;5117863;28;20071;-62
2022/02/13 02:36:03;;;;;;;18.87;14.33;;;4.70;99.90;;;4.82;72.88;101408.84;5117562;28;20069;-61
2022/02/13 02:38:32;;;;;;;20.93;13.93;;;4.70;99.90;;;4.57;72.85;101375.88;5117493;28;20046;-61
2022/02/13 02:41:01;;;;;;;20.77;14.60;;;4.70;99.90;;;3.94;73.00;101235.34;5117410;28;20044;-61
2022/02/13 02:43:30;;;;;;;18.23;13.27;;;4.70;99.90;;;4.76;72.89;101374.66;5117591;28;20068;-62
2022/02/13 02:45:59;;;;;;;22.50;14.17;;;4.70;99.90;;;4.77;72.91;101373.78;5117351;28;20067;-61
2022/02/13 02:48:27;;;;;;;18.37;13.77;;;4.60;99.90;;;4.76;72.66;101365.91;5117542;27;20051;-61
2022/02/13 02:50:55;;;;;;;19.87;13.40;;;4.70;99.90;;;4.64;73.09;101355.97;5117273;28;20066;-62
2022/02/13 02:53:24;;;;;;;23.37;13.90;;;4.60;99.90;;;4.84;72.69;101348.66;5117169;28;20090;-61
2022/02/13 02:55:54;;;;;;;20.63;13.27;;;4.70;99.90;;;4.79;72.60;101355.47;5117316;28;20044;-61
2022/02/13 02:58:25;;;;;;;22.27;13.77;;;4.70;99.90;;;4.81;72.49;101343.31;5116901;28;20120;-61
2022/02/13 03:00:56;;;;;;;20.10;14.50;;;4.70;99.90;;;4.79;73.03;101338.03;5117373;28;20044;-61
2022/02/13 03:03:25;;;;;;;20.47;14.10;;;4.70;99.90;;;4.71;72.61;101321.22;5117130;28;20047;-61
2022/02/13 03:05:54;;;;;;;19.53;13.97;;;4.70;99.90;;;4.73;72.91;101329.13;5116894;28;20078;-61
2022/02/13 03:08:22;;;;;;;17.00;13.10;;;4.70;99.90;;;4.74;72.63;101323.94;5115877;28;20465;-62
2022/02/13 03:10:51;;;;;;;24.70;14.90;;;4.60;99.90;;;4.65;72.70;101314.94;5117314;28;20043;-61
2022/02/13 03:13:21;;;;;;;21.43;13.50;;;4.60;99.90;;;4.75;73.05;101312.59;5116787;28;20044;-61
2022/02/13 03:15:51;;;;;;;21.57;13.87;;;4.60;99.90;;;4.49;73.19;101266.53;5116769;28;20500;-61
2022/02/13 03:18:20;;;;;;;21.20;13.95;;;4.60;99.90;;;4.65;73.10;101315.81;5116808;28;20032;-61
2022/02/13 03:20:51;;;;;;;23.07;14.03;;;4.60;99.90;;;4.63;73.08;101301.78;5116998;28;20157;-61
2022/02/13 03:23:20;;;;;;;20.88;13.45;;;4.50;99.90;;;4.54;73.13;101288.47;5115641;28;20408;-61
2022/02/13 03:25:48;;;;;;;20.30;12.93;;;4.50;99.90;;;4.53;73.65;101298.06;5116512;28;20100;-61
2022/02/13 03:28:17;;;;;;;20.30;14.20;;;4.50;99.90;;;4.43;73.03;101285.53;5116551;28;20042;-61
2022/02/13 03:30:47;;;;;;;19.65;14.32;;;4.50;99.90;;;4.57;72.92;101292.03;5116787;28;20046;-61
2022/02/13 03:33:17;;;;;;;21.20;13.60;;;4.50;99.90;;;4.72;72.98;101301.16;5116440;28;20078;-61
2022/02/13 03:35:45;;;;;;;22.35;14.32;;;4.50;99.90;;;4.55;73.04;101241.34;5115038;28;20063;-61
2022/02/13 03:38:17;;;;;;;23.33;13.60;;;4.50;99.90;;;4.64;73.28;101273.88;5115640;28;20126;-61
2022/02/13 03:40:46;;;;;;;20.47;14.00;;;4.50;99.90;;;4.66;72.80;101270.47;5116305;27;20550;-62
2022/02/13 03:43:17;;;;;;;21.77;13.97;;;4.50;99.90;;;4.45;73.00;101246.34;5116425;28;20067;-61
2022/02/13 03:45:45;;;;;;;19.80;14.45;;;4.50;99.90;;;4.50;73.41;101255.19;5116299;28;20043;-61
2022/02/13 03:48:14;;;;;;;18.00;14.10;;;4.50;99.90;;;4.54;73.02;101273.66;5116150;28;20040;-62
2022/02/13 03:50:43;;;;;;;23.37;13.80;;;4.50;99.90;;;4.56;73.36;101277.19;5116022;28;20043;-61
2022/02/13 03:53:12;;;;;;;20.05;14.20;;;4.40;99.90;;;4.39;72.86;101254.88;5116030;28;20051;-61
2022/02/13 03:55:40;;;;;;;21.33;14.00;;;4.40;99.90;;;4.49;73.25;101242.94;5114940;28;20507;-61
2022/02/13 03:58:08;;;;;;;21.73;14.53;;;4.40;99.90;;;4.58;73.16;101278.13;5116232;28;20467;-61
2022/02/13 04:00:37;;;;;;;19.40;13.73;;;4.50;99.90;;;4.65;72.92;101273.00;5116145;28;20043;-62
2022/02/13 04:03:06;;;;;;;21.93;14.63;;;4.50;99.90;;;4.52;72.95;101248.25;5115734;28;20047;-61
2022/02/13 04:05:35;;;;;;;19.03;14.53;;;4.50;99.90;;;4.20;73.37;101189.81;5115805;28;20035;-61
2022/02/13 04:08:05;;;;;;;19.37;13.60;;;4.50;99.90;;;4.47;73.22;101279.56;5116051;28;20114;-61
2022/02/13 04:10:34;;;;;;;22.10;14.43;;;4.50;99.90;;;4.67;72.95;101268.69;5115682;28;20485;-61
2022/02/13 04:13:03;;;;;;;24.67;14.33;;;4.50;99.90;;;4.67;72.85;101268.69;5115654;28;20485;-61
2022/02/13 04:15:31;;;;;;;22.43;14.57;;;4.50;99.90;;;4.58;72.87;101251.94;5115833;28;20044;-61
2022/02/13 04:17:59;;;;;;;17.87;13.70;;;4.50;99.90;;;4.67;73.09;101256.50;5115653;28;20123;-62
2022/02/13 04:20:29;;;;;;;20.30;13.63;;;4.60;99.90;;;4.71;72.82;101249.59;5116117;28;20063;-62
2022/02/13 04:22:57;;;;;;;23.20;13.93;;;4.60;99.90;;;4.69;72.90;101261.75;5115410;28;20469;-61
2022/02/13 04:25:27;;;;;;;20.10;14.10;;;4.50;99.90;;;4.49;73.19;101228.09;5115350;28;20066;-61
2022/02/13 04:27:56;;;;;;;18.00;12.85;;;4.60;99.90;;;4.12;73.05;101170.38;5115359;28;20088;-62
2022/02/13 04:30:25;;;;;;;21.20;14.47;;;4.60;99.90;;;4.50;73.30;101232.50;5115314;28;20078;-61
2022/02/13 04:32:55;;;;;;;18.97;14.50;;;4.60;99.90;;;4.71;73.00;101255.72;5115759;28;20039;-61
2022/02/13 04:35:24;;;;;;;21.57;14.43;;;4.60;99.90;;;4.74;72.96;101270.66;5130764;27;20040;-61
2022/02/13 04:37:53;;;;;;;20.83;14.57;;;4.60;99.90;;;4.56;73.50;101237.91;5115416;28;20069;-61
2022/02/13 04:40:24;;;;;;;19.77;13.53;;;4.60;99.90;;;4.77;73.18;101260.22;5115386;28;20105;-61
2022/02/13 04:42:54;;;;;;;20.00;13.65;;;4.60;99.90;;;4.76;73.22;101259.38;5115261;28;20054;-61
2022/02/13 04:45:23;;;;;;;22.73;13.48;;;4.60;99.90;;;4.76;72.91;101266.34;5114974;28;20077;-61
2022/02/13 04:47:51;;;;;;;18.30;13.47;;;4.60;99.90;;;4.75;73.24;101265.44;5115096;28;20036;-61
2022/02/13 04:50:21;;;;;;;19.03;13.67;;;4.70;99.90;;;4.75;73.25;101254.97;5131045;27;20039;-61
2022/02/13 04:52:55;;;;;;;21.97;15.10;;;4.60;99.90;;;4.80;72.71;101245.47;5114919;28;20073;-62
2022/02/13 04:55:24;;;;;;;19.87;13.40;;;4.70;99.90;;;4.84;73.03;101249.06;5114890;28;20043;-62
2022/02/13 04:57:54;;;;;;;21.60;14.23;;;4.70;99.90;;;4.82;73.13;101232.44;5115007;28;20453;-62
2022/02/13 05:00:23;;;;;;;18.73;14.13;;;4.70;99.90;;;4.89;72.82;101236.97;5113693;28;20051;-61
2022/02/13 05:02:51;;;;;;;19.53;13.27;;;4.80;99.90;;;4.86;72.74;101236.91;5115269;28;20094;-61
2022/02/13 05:05:19;;;;;;;23.07;14.03;;;4.70;99.90;;;4.82;72.58;101229.81;5114877;28;20122;-61
2022/02/13 05:07:48;;;;;;;19.83;13.90;;;4.70;99.90;;;4.79;72.81;101208.75;5114546;28;20043;-61
2022/02/13 05:10:16;;;;;;;17.97;12.73;;;4.70;99.90;;;5.01;72.48;101208.44;5114622;28;20464;-61
2022/02/13 05:12:44;;;;;;;17.27;13.33;;;4.80;99.90;;;5.03;72.25;101198.88;5114466;28;20040;-62
2022/02/13 05:15:15;;;;;;;17.60;13.23;;;4.90;99.90;;;5.05;72.28;101208.50;5114377;27;20464;-61
2022/02/13 05:17:44;;;;;;;19.23;14.00;;;5.00;99.90;;;5.03;72.32;101199.72;5114488;28;20396;-61
2022/02/13 05:20:13;;;;;;;21.73;13.60;;;4.90;99.90;;;4.94;72.30;101210.00;5114045;28;20047;-61
2022/02/13 05:22:42;;;;;;;20.63;13.17;;;4.90;99.90;;;4.90;72.28;101191.53;5114318;28;20071;-62
2022/02/13 05:25:10;;;;;;;23.10;14.03;;;4.80;99.90;;;4.08;72.32;101034.22;5130371;27;20443;-63
2022/02/13 05:27:39;;;;;;;19.77;14.40;;;4.80;99.90;;;4.99;72.67;101181.28;5114280;28;20122;-61
2022/02/13 05:30:09;;;;;;;19.70;13.73;;;4.90;99.90;;;4.98;72.30;101179.50;5114457;28;20043;-62
2022/02/13 05:32:40;;;;;;;23.43;14.23;;;4.90;99.90;;;4.88;71.94;101146.09;5114206;28;20465;-61
2022/02/13 05:35:10;;;;;;;24.90;15.65;;;4.90;99.90;;;4.97;72.07;101164.66;5114145;28;20054;-61
2022/02/13 05:37:40;;;;;;;20.70;14.67;;;4.90;99.90;;;5.06;72.34;101173.59;5114123;28;20039;-61
2022/02/13 05:40:10;;;;;;;18.23;13.67;;;4.90;99.90;;;4.98;71.84;101156.81;5112958;28;20052;-61
2022/02/13 05:42:39;;;;;;;19.48;14.57;;;4.90;99.90;;;5.04;72.16;101164.81;5114048;28;20035;-61
2022/02/13 05:45:09;;;;;;;19.27;14.40;;;4.90;99.90;;;5.05;72.08;101155.22;5112827;28;20399;-62
2022/02/13 05:47:39;;;;;;;20.95;14.35;;;5.00;99.90;;;5.17;72.11;101171.19;5113941;28;20035;-62
2022/02/13 05:50:08;;;;;;;19.02;14.45;;;5.00;99.90;;;5.20;72.30;101182.66;5130064;27;20047;-62
2022/02/13 05:52:36;;;;;;;18.70;13.23;;;5.10;99.90;;;5.12;72.00;101154.50;5113752;28;20071;-61
2022/02/13 05:55:05;;;;;;;18.83;14.00;;;5.10;99.90;;;5.08;71.71;101116.84;5113814;28;20043;-61
2022/02/13 05:57:34;;;;;;;21.90;14.07;;;5.10;99.90;;;5.13;71.61;101143.19;5114036;28;20051;-62
2022/02/13 06:00:02;;;;;;;18.50;13.73;;;5.10;99.90;;;5.31;72.04;101159.28;5129264;27;20043;-61
2022/02/13 06:02:40;;;;;;;21.23;13.50;;;5.20;99.90;;;5.32;71.93;101156.69;5113738;28;20050;-62
2022/02/13 06:05:10;;;;;;;17.88;13.68;;;5.20;99.90;;;5.36;71.78;101168.16;5114208;28;20035;-62
2022/02/13 06:07:40;;;;;;;19.58;13.63;;;5.20;99.90;;;5.21;71.96;101142.47;5113697;28;20040;-61
2022/02/13 06:10:11;;;;;;;23.05;14.32;;;5.20;99.90;;;5.30;71.85;101136.53;5113602;28;20538;-61
2022/02/13 06:12:40;;;;;;;19.30;13.17;;;5.20;99.90;;;5.37;71.65;101152.44;5129765;27;20059;-61
2022/02/13 06:15:09;;;;;;;18.53;13.77;;;5.20;99.90;;;5.24;71.58;101139.94;5113536;28;20441;-61
2022/02/13 06:17:39;;;;;;;18.23;13.60;;;5.20;99.90;;;5.07;72.09;101127.31;5113516;28;20040;-61
2022/02/13 06:20:10;;;;;;;18.33;14.07;;;5.20;99.90;;;4.24;72.02;100966.53;5113378;28;20376;-61
2022/02/13 06:22:39;;;;;;;20.57;12.97;;;5.10;99.90;;;5.09;71.96;101104.63;5113798;28;20050;-61
2022/02/13 06:25:09;;;;;;;18.30;13.03;;;5.10;99.90;;;5.17;72.01;101119.66;5113794;28;20448;-61
2022/02/13 06:27:37;;;;;;;21.92;13.95;;;5.10;99.90;;;5.16;72.00;101132.75;5113521;28;20042;-62
2022/02/13 06:30:07;;;;;;;19.53;13.97;;;5.10;99.90;;;5.17;72.17;101124.00;5129452;28;20467;-61
2022/02/13 06:32:36;;;;;;;17.65;14.23;;;5.00;99.90;;;5.11;72.36;101105.56;5113640;28;20538;-61
2022/02/13 06:35:07;;;;;;;21.50;14.27;;;5.00;99.90;;;5.19;72.47;101117.94;5113321;28;20484;-61
2022/02/13 06:37:38;;;;;;;20.73;13.73;;;5.00;99.90;;;5.09;72.21;101099.41;5113574;28;20411;-62
2022/02/13 06:40:08;;;;;;;19.13;14.50;;;5.00;99.90;;;5.16;72.48;101101.28;5113605;28;20048;-63
2022/02/13 06:42:37;;;;;;;19.92;13.88;;;5.10;99.90;;;5.20;72.45;101100.50;5113280;28;20042;-61
2022/02/13 06:45:06;;;;;;;18.63;13.87;;;5.10;99.90;;;5.21;72.48;101095.28;5113204;28;20036;-61
2022/02/13 06:47:40;;;;;;;18.00;14.37;;;5.10;99.90;;;5.28;72.34;101101.53;5113224;28;20035;-61
2022/02/13 06:50:11;;;;;;;19.93;13.20;;;5.20;99.90;;;5.27;72.25;101105.00;5113242;28;20479;-62
2022/02/13 06:52:40;;;;;;;23.23;13.03;;;5.10;99.90;;;5.22;72.18;101096.16;5113223;28;20143;-61
2022/02/13 06:55:09;;;;;;;18.27;13.40;;;5.10;99.90;;;5.23;72.79;101096.19;5113152;28;20067;-61
2022/02/13 06:57:44;;;;;;;18.65;14.35;;;5.10;99.90;;;5.12;72.28;101094.19;5113265;28;20070;-61
2022/02/13 07:00:15;;;;;;;22.23;14.00;;;5.10;99.90;;;5.33;72.48;101102.50;5113115;28;20101;-61
2022/02/13 07:02:45;;;;;;;20.70;13.43;;;5.10;99.90;;;5.18;72.23;101110.06;5113114;28;20127;-61
2022/02/13 07:05:15;;;;;;;20.10;13.27;;;5.10;99.90;;;5.06;72.42;101065.22;5113624;28;20043;-61
2022/02/13 07:07:44;;;;;;;;;;;5.20;99.90;;;5.26;72.79;101104.13;5114110;28;20047;-61
2022/02/13 07:10:14;;;;;;;19.17;13.87;;;5.20;99.90;;;5.15;72.37;101095.16;5113201;28;19919;-61
2022/02/13 07:12:43;;;;;;;21.77;13.98;;;5.10;99.90;;;5.28;72.84;101112.03;5117096;28;20043;-62
2022/02/13 07:15:11;;;;;;;16.57;12.93;;;5.20;99.90;;;5.37;72.29;101110.47;5116805;28;20063;-62
2022/02/13 07:17:45;;;;;;;19.93;13.80;;;5.20;99.90;;;5.35;72.43;101113.91;5117007;28;20051;-61
2022/02/13 07:20:15;;;;;;;18.20;13.43;;;5.20;99.90;;;3.70;72.28;100825.78;5116716;28;20035;-61
2022/02/13 07:22:44;;;;;;;19.30;13.57;;;5.20;99.90;;;5.01;72.25;101059.03;5116652;28;20122;-61
2022/02/13 07:25:13;;;;;;;22.50;14.23;;;5.20;99.90;;;5.33;72.32;101115.63;5116348;28;20035;-61
2022/02/13 07:27:41;;;;;;;23.60;14.07;;;5.20;99.90;;;5.35;72.61;101106.94;5116503;28;20089;-61
2022/02/13 07:30:13;;;;;;;23.63;14.13;;;5.20;99.90;;;5.41;72.72;101100.94;5116693;28;20051;-62
2022/02/13 07:32:43;;;;;;;21.20;13.77;;;5.30;99.90;;;5.36;72.64;101110.47;5116521;28;20529;-61
2022/02/13 07:35:14;;;;;;;20.10;14.60;;;5.30;99.90;;;5.30;72.34;101087.59;5116679;28;20094;-61
2022/02/13 07:37:43;;;;;;;18.07;13.27;;;5.20;99.90;;;5.20;72.66;101079.53;5116311;28;20044;-63
2022/02/13 07:40:14;;;;;;;19.50;13.00;;;5.30;99.90;;;5.39;72.50;101092.13;5132403;27;20504;-61
2022/02/13 07:42:46;;;;;;;15.40;13.27;;;5.30;99.90;;;4.75;72.59;100961.53;5116847;28;20040;-62
2022/02/13 07:45:14;;;;;;;19.40;13.37;;;5.30;99.90;;;5.35;72.43;101099.06;5116405;28;20111;-62
2022/02/13 07:47:43;;;;;;;17.77;14.00;;;5.30;99.90;;;5.46;72.38;101100.16;5115888;28;20106;-62
2022/02/13 07:50:14;;;;;;;18.90;13.68;;;5.30;99.90;;;5.47;73.06;101093.19;5115589;28;20504;-62
2022/02/13 07:52:43;;;;;;;19.85;13.70;;;5.40;99.90;;;5.52;72.54;101075.78;5115991;28;20120;-61
2022/02/13 07:55:14;;;;;;;17.17;13.55;;;5.40;99.90;;;5.42;72.69;101060.72;5116051;28;20485;-61
2022/02/13 07:57:42;;;;;;;17.10;13.40;;;5.40;99.90;;;5.62;72.31;101092.56;5115900;28;20153;-61
2022/02/13 08:00:12;;;;;;;15.83;13.03;;;5.50;99.90;;;5.50;72.14;101080.09;5131997;27;20043;-61
2022/02/13 08:02:40;;;;;;;18.57;13.37;;;5.40;99.90;;;5.60;72.69;101070.66;5115726;28;20043;-61
2022/02/13 08:05:10;;;;;;;18.83;13.10;;;5.40;99.90;;;5.56;72.30;101090.72;5115665;28;20481;-60
2022/02/13 08:07:46;;;;;;;19.37;12.87;;;5.40;99.90;;;5.57;72.47;101068.00;5114599;28;20055;-60
2022/02/13 08:10:15;;;;;;;22.05;13.88;;;5.50;99.90;;;5.64;72.50;101059.38;5115767;28;20534;-62
2022/02/13 08:12:44;;;;;;;17.75;13.10;;;5.50;99.90;;;5.61;72.28;101067.22;5115782;28;20075;-60
2022/02/13 08:15:13;;;;;;;18.47;13.67;;;5.50;99.90;;;5.52;72.75;101049.56;5115412;28;20039;-61
2022/02/13 08:17:42;;;;;;;19.50;13.30;;;5.40;99.90;;;5.44;72.91;101040.66;5115783;28;20093;-60
2022/02/13 08:20:14;;;;;;;18.90;12.97;;;5.40;99.90;;;5.53;72.43;101052.19;5115699;28;20126;-59
2022/02/13 08:22:44;;;;;;;21.53;14.13;;;5.40;99.90;;;5.44;72.84;101030.16;5115020;28;20429;-60
2022/02/13 08:25:13;;;;;;;;;;;5.40;99.90;;;5.52;72.93;101044.31;5116015;28;20039;-60
2022/02/13 08:27:41;;;;;;;17.23;13.07;;;5.40;99.90;;;5.48;72.74;101046.00;5115555;28;19920;-60
2022/02/13 08:30:11;;;;;;;16.77;12.77;;;5.40;99.90;;;5.50;73.07;101041.66;5115202;28;20043;-61
2022/02/13 08:32:40;;;;;;;19.52;13.40;;;5.40;99.90;;;5.50;72.86;101049.53;5115141;28;20108;-60
2022/02/13 08:35:09;;;;;;;17.70;13.13;;;5.40;99.90;;;5.41;72.88;101028.38;5114977;28;20074;-60
2022/02/13 08:37:37;;;;;;;19.23;13.23;;;5.40;99.90;;;5.61;72.74;101039.25;5131063;27;20048;-59
2022/02/13 08:40:09;;;;;;;17.60;12.73;;;5.50;99.90;;;5.47;73.14;101040.72;5115056;28;20043;-60
2022/02/13 08:42:38;;;;;;;18.20;12.70;;;5.40;99.90;;;5.57;72.68;101036.53;5114885;28;20054;-60
2022/02/13 08:45:07;;;;;;;17.10;12.70;;;5.40;99.90;;;4.92;73.03;100918.19;5114884;28;20115;-60
2022/02/13 08:47:35;;;;;;;16.80;12.70;;;5.50;99.90;;;5.61;72.75;101012.13;5115150;28;20043;-61
2022/02/13 08:50:04;;;;;;;18.10;13.10;;;5.50;99.90;;;5.69;72.68;101045.50;5113465;28;20104;-60
2022/02/13 08:52:33;;;;;;;19.33;13.10;;;5.50;99.90;;;5.73;72.71;101034.19;5114837;28;20048;-62
2022/02/13 08:55:01;;;;;;;20.23;14.47;;;5.60;99.90;;;5.74;72.52;101021.97;5114154;28;20122;-62
2022/02/13 08:57:31;;;;;;;18.42;12.45;;;5.60;99.90;;;5.64;72.50;101009.53;5112832;28;20503;-62
2022/02/13 09:00:00;;;;;;;16.40;12.77;;;5.60;99.90;;;5.65;71.84;101001.72;5148166;27;20496;-61
2022/02/13 09:02:28;;;;;;;15.97;12.67;;;5.60;99.90;;;5.61;72.56;100992.03;5114551;28;20484;-61
2022/02/13 09:04:57;;;;;;;20.40;13.67;;;5.70;99.90;;;5.87;72.32;101006.47;5114392;28;20094;-61
2022/02/13 09:07:25;;;;;;;19.33;13.48;;;5.70;99.90;;;5.78;72.18;100994.91;5114242;28;20492;-61
2022/02/13 09:09:56;;;;;;;19.50;13.83;;;5.80;99.90;;;5.90;72.36;101003.03;5114070;28;20047;-62
2022/02/13 09:12:25;;;;;;;22.97;14.00;;;5.70;99.90;;;5.88;72.30;101003.03;5114193;28;20044;-61
2022/02/13 09:14:55;;;;;;;16.83;13.63;;;5.80;99.90;;;5.99;72.04;100990.94;5113964;28;20058;-62
2022/02/13 09:17:23;;;;;;;19.48;13.85;;;5.80;99.90;;;6.00;72.13;100984.81;5113175;28;20458;-63
2022/02/13 09:19:52;;;;;;;17.65;13.10;;;5.90;99.90;;;6.00;72.30;100991.84;5113901;28;20112;-64
2022/02/13 09:22:20;;;;;;;16.23;12.60;;;5.90;99.90;;;6.06;71.98;100979.66;5112727;28;20055;-69
2022/02/13 09:24:49;;;;;;;18.90;13.30;;;5.90;99.90;;;6.13;71.90;100959.66;5113430;28;20124;-61
2022/02/13 09:27:23;;;;;;;22.92;12.70;;;6.00;99.90;;;6.38;71.52;100974.91;5114202;28;20044;-62
2022/02/13 09:29:52;;;;;;;19.20;13.38;;;6.20;99.90;;;6.55;71.71;100962.88;5113929;28;20067;-61
2022/02/13 09:32:24;;;;;;;20.85;13.45;;;6.40;99.90;;;6.53;70.69;100914.66;5114181;28;20043;-62
2022/02/13 09:34:52;;;;;;;20.65;12.30;;;6.50;99.90;;;6.86;69.99;100975.53;5113164;28;20096;-60
2022/02/13 09:37:20;;;;;;;17.67;13.20;;;6.70;99.90;;;7.02;69.77;100968.72;5130363;27;20468;-62
2022/02/13 09:39:49;;;;;;;17.58;12.52;;;6.80;99.90;;;7.07;69.11;100953.84;5113951;28;20404;-65
2022/02/13 09:42:21;;;;;;;17.33;12.90;;;7.00;99.90;;;7.16;68.97;100948.72;5114064;28;20046;-65
2022/02/13 09:44:49;;;;;;;17.42;12.80;;;7.10;99.90;;;7.23;68.83;100972.47;5112743;28;20052;-67
2022/02/13 09:47:21;;;;;;;16.40;12.57;;;7.10;99.90;;;6.91;68.54;100936.16;5113809;28;20044;-62
2022/02/13 09:49:50;;;;;;;;;;;7.10;99.90;;;7.24;68.46;100965.44;5114324;28;20093;-66
2022/02/13 09:52:20;;;;;;;19.50;12.82;;;7.10;99.90;;;7.41;68.34;100955.09;5113807;28;19927;-66
2022/02/13 09:54:48;;;;;;;15.27;12.02;;;7.30;99.90;;;7.56;67.96;100957.88;5129673;27;20051;-65
2022/02/13 10:00:04;;;;;;;16.00;12.05;;;7.50;99.90;;;7.72;67.79;100949.25;5113642;28;20106;-63
2022/02/13 10:02:42;;;;;;;15.70;12.23;;;7.60;99.90;;;7.90;67.17;100952.88;5113848;27;20101;-65
2022/02/13 10:05:13;;;;;;;17.38;12.20;;;7.70;99.90;;;7.86;67.50;100913.34;5129707;27;20052;-67
2022/02/13 10:07:43;;;;;;;18.23;12.65;;;7.80;99.90;;;7.51;67.01;100872.75;5113616;28;20067;-62
2022/02/13 10:10:12;;;;;;;15.68;11.32;;;7.80;99.90;;;7.66;66.69;100905.31;5113666;28;20069;-63
2022/02/13 10:12:43;;;;;;;19.40;12.43;;;7.70;99.90;;;5.98;66.99;100579.66;5113460;28;20043;-62
2022/02/13 10:15:32;;;;;;;19.55;11.75;;;7.80;99.90;;;7.71;66.64;100914.13;5113756;28;20057;-63
2022/02/13 10:18:05;;;;;;;18.77;12.50;;;7.80;99.90;;;8.03;66.76;100970.53;5113811;28;20044;-62
2022/02/13 10:20:36;;;;;;;16.30;12.38;;;7.80;99.90;;;8.07;66.48;100924.06;5113464;28;20406;-63
2022/02/13 10:23:07;;;;;;;18.02;11.88;;;7.90;99.90;;;8.13;67.06;100903.88;5113670;28;20113;-62
2022/02/13 10:25:37;;;;;;;17.60;11.88;;;8.00;99.90;;;7.78;66.69;100894.00;5113355;28;20040;-62